createdAt,value
2023-04-26T00:01:40.241Z,4.60
2023-04-26T00:05:43.558Z,4.50
2023-04-26T00:09:48.367Z,4.40
2023-04-26T00:13:51.535Z,4.30
2023-04-26T00:17:59.076Z,4.20
2023-04-26T00:22:03.055Z,4.10
2023-04-26T00:26:06.368Z,4.00
2023-04-26T00:30:11.577Z,4.00
2023-04-26T00:34:18.764Z,3.80
2023-04-26T00:38:21.850Z,3.80
2023-04-26T00:42:34.438Z,3.60
2023-04-26T00:46:37.600Z,3.50
2023-04-26T00:50:44.476Z,3.40
2023-04-26T00:54:48.238Z,3.40
2023-04-26T00:58:54.380Z,3.40
2023-04-26T01:02:57.985Z,3.40
2023-04-26T01:07:03.307Z,3.30
2023-04-26T01:11:06.514Z,3.20
2023-04-26T01:15:11.296Z,3.20
2023-04-26T01:19:15.327Z,3.10
2023-04-26T01:23:22.301Z,3.10
2023-04-26T01:27:28.925Z,3.00
2023-04-26T01:31:32.028Z,2.80
2023-04-26T01:35:36.359Z,2.70
2023-04-26T01:40:01.245Z,2.70
2023-04-26T01:44:06.647Z,2.70
2023-04-26T01:48:10.574Z,2.70
2023-04-26T01:52:13.578Z,2.70
2023-04-26T01:56:20.780Z,2.70
2023-04-26T02:00:25.847Z,2.70
2023-04-26T02:04:30.970Z,2.70
2023-04-26T02:08:37.201Z,2.60
2023-04-26T02:12:42.154Z,2.60
2023-04-26T02:16:45.325Z,2.60
2023-04-26T02:20:48.531Z,2.60
2023-04-26T02:24:51.856Z,2.60
2023-04-26T02:28:56.221Z,2.50
2023-04-26T02:32:59.691Z,2.50
2023-04-26T02:37:03.166Z,2.40
2023-04-26T02:41:06.621Z,2.30
2023-04-26T02:45:16.926Z,2.30
2023-04-26T02:49:19.949Z,2.20
2023-04-26T02:53:24.592Z,2.20
2023-04-26T02:57:29.299Z,2.10
2023-04-26T03:01:33.798Z,2.00
2023-04-26T03:05:36.838Z,2.00
2023-04-26T03:09:45.094Z,2.10
2023-04-26T03:13:48.296Z,2.20
2023-04-26T03:17:52.937Z,2.30
2023-04-26T03:21:58.415Z,2.50
2023-04-26T03:26:04.724Z,2.70
2023-04-26T03:30:09.133Z,2.80
2023-04-26T03:34:15.091Z,3.00
2023-04-26T03:38:18.761Z,3.10
2023-04-26T03:42:22.385Z,3.20
2023-04-26T03:46:27.886Z,3.10
2023-04-26T03:50:32.696Z,3.10
2023-04-26T03:54:36.240Z,3.00
2023-04-26T03:58:39.552Z,2.90
2023-04-26T04:02:44.672Z,2.80
2023-04-26T04:06:49.308Z,2.80
2023-04-26T04:10:52.536Z,2.80
2023-04-26T04:14:55.913Z,2.90
2023-04-26T04:19:01.900Z,2.80
2023-04-26T04:23:07.908Z,2.70
2023-04-26T04:27:11.755Z,2.70
2023-04-26T04:31:15.306Z,2.70
2023-04-26T04:35:18.953Z,2.70
2023-04-26T04:39:38.356Z,2.80
2023-04-26T04:43:42.650Z,2.90
2023-04-26T04:47:48.637Z,3.10
2023-04-26T04:51:54.411Z,3.30
2023-04-26T04:55:59.853Z,3.50
2023-04-26T05:00:07.323Z,3.70
2023-04-26T05:04:10.807Z,4.00
2023-04-26T05:08:15.940Z,4.20
2023-04-26T05:12:29.460Z,4.40
2023-04-26T05:16:33.090Z,4.60
2023-04-26T05:20:36.239Z,4.80
2023-04-26T05:24:43.461Z,5.10
2023-04-26T05:28:47.909Z,5.30
2023-04-26T05:32:51.692Z,5.40
2023-04-26T05:36:55.069Z,5.50
2023-04-26T05:41:03.523Z,5.60
2023-04-26T05:45:10.276Z,5.80
2023-04-26T05:49:13.257Z,6.20
2023-04-26T05:53:16.634Z,6.60
2023-04-26T05:57:24.190Z,6.70
2023-04-26T06:01:32.086Z,6.80
2023-04-26T06:05:38.289Z,6.90
2023-04-26T06:09:41.446Z,7.00
2023-04-26T06:13:44.445Z,7.30
2023-04-26T06:17:51.516Z,7.70
2023-04-26T06:21:59.157Z,7.90
2023-04-26T06:26:02.268Z,8.00
2023-04-26T06:30:08.906Z,8.00
2023-04-26T06:34:14.378Z,8.20
2023-04-26T06:38:21.796Z,8.30
2023-04-26T06:42:27.955Z,8.50
2023-04-26T06:46:34.197Z,8.60
2023-04-26T06:50:40.425Z,8.60
2023-04-26T06:54:56.001Z,8.50
2023-04-26T06:59:01.584Z,8.60
2023-04-26T07:03:04.877Z,8.70
2023-04-26T07:07:13.249Z,9.10
2023-04-26T07:11:18.652Z,9.60
2023-04-26T07:15:23.934Z,10.20
2023-04-26T07:19:28.311Z,10.90
2023-04-26T07:23:34.253Z,11.80
2023-04-26T07:28:06.236Z,13.00
2023-04-26T07:32:18.101Z,13.50
2023-04-26T07:36:23.077Z,14.30
2023-04-26T07:40:32.452Z,14.40
2023-04-26T07:44:35.501Z,13.90
2023-04-26T07:48:38.794Z,13.40
2023-04-26T07:52:43.389Z,13.80
2023-04-26T07:56:47.906Z,12.90
2023-04-26T08:00:51.084Z,12.90
2023-04-26T08:04:58.310Z,13.50
2023-04-26T08:09:06.455Z,14.50
2023-04-26T08:13:15.037Z,15.40
2023-04-26T08:17:18.074Z,16.00
2023-04-26T08:21:21.067Z,15.20
2023-04-26T08:25:24.322Z,14.40
2023-04-26T08:29:32.371Z,14.10
2023-04-26T08:33:38.324Z,13.80
2023-04-26T08:37:41.419Z,15.10
2023-04-26T08:41:45.896Z,15.00
2023-04-26T08:45:50.962Z,14.00
2023-04-26T08:49:59.635Z,14.60
2023-04-26T08:54:05.010Z,14.20
2023-04-26T08:58:09.849Z,13.30
2023-04-26T09:02:18.715Z,13.10
2023-04-26T09:06:25.596Z,13.10
2023-04-26T09:10:36.462Z,13.30
2023-04-26T09:14:40.330Z,13.40
2023-04-26T09:18:54.284Z,14.20
2023-04-26T09:23:06.707Z,14.50
2023-04-26T09:27:12.076Z,15.60
2023-04-26T09:31:39.023Z,15.70
2023-04-26T09:35:49.806Z,15.20
2023-04-26T09:39:54.758Z,14.90
2023-04-26T09:43:58.076Z,15.50
2023-04-26T09:48:22.134Z,15.50
2023-04-26T09:52:28.996Z,15.90
2023-04-26T09:56:33.438Z,14.80
2023-04-26T10:00:37.797Z,15.10
2023-04-26T10:04:40.929Z,15.90
2023-04-26T10:08:48.289Z,15.30
2023-04-26T10:12:51.311Z,14.40
2023-04-26T10:16:56.069Z,13.60
2023-04-26T10:21:01.942Z,14.40
2023-04-26T10:25:10.269Z,15.40
2023-04-26T10:29:13.305Z,15.40
2023-04-26T10:33:16.654Z,15.10
2023-04-26T10:37:20.379Z,15.10
2023-04-26T10:41:40.000Z,14.90
2023-04-26T10:45:44.357Z,15.80
2023-04-26T10:49:50.118Z,16.40
2023-04-26T10:54:07.232Z,17.10
2023-04-26T10:58:31.457Z,17.40
2023-04-26T11:02:49.774Z,17.30
2023-04-26T11:06:55.786Z,16.40
2023-04-26T11:11:11.693Z,15.90
2023-04-26T11:15:17.219Z,15.60
2023-04-26T11:19:22.270Z,15.30
2023-04-26T11:23:29.742Z,14.60
2023-04-26T11:27:34.066Z,14.40
2023-04-26T11:31:38.806Z,15.50
2023-04-26T11:35:47.081Z,16.10
2023-04-26T11:39:52.767Z,16.70
2023-04-26T11:44:00.850Z,16.80
2023-04-26T11:48:07.054Z,17.30
2023-04-26T11:52:12.952Z,17.40
2023-04-26T11:56:24.539Z,17.30
2023-04-26T12:00:30.936Z,17.50
2023-04-26T12:04:35.709Z,16.70
2023-04-26T12:08:38.806Z,16.20
2023-04-26T12:12:48.290Z,16.00
2023-04-26T12:16:54.417Z,16.10
2023-04-26T12:21:03.701Z,16.20
2023-04-26T12:25:08.924Z,16.20
2023-04-26T12:29:12.205Z,15.90
2023-04-26T12:33:17.621Z,15.80
2023-04-26T12:37:22.457Z,15.80
2023-04-26T12:41:25.760Z,15.80
2023-04-26T12:45:33.413Z,15.80
2023-04-26T12:49:36.977Z,15.80
2023-04-26T12:53:44.979Z,15.50
2023-04-26T12:57:48.309Z,15.30
2023-04-26T13:01:54.286Z,15.30
2023-04-26T13:05:59.065Z,15.50
2023-04-26T13:10:04.668Z,15.70
2023-04-26T13:14:10.679Z,16.00
2023-04-26T13:18:16.052Z,16.50
2023-04-26T13:22:19.912Z,16.80
2023-04-26T13:26:27.674Z,16.70
2023-04-26T13:30:33.165Z,16.30
2023-04-26T13:34:36.780Z,16.30
2023-04-26T13:38:42.608Z,16.80
2023-04-26T13:42:47.915Z,17.10
2023-04-26T13:46:51.146Z,17.10
2023-04-26T13:50:56.324Z,17.10
2023-04-26T13:55:01.036Z,16.90
2023-04-26T13:59:08.703Z,17.10
2023-04-26T14:03:11.884Z,17.40
2023-04-26T14:07:14.959Z,17.10
2023-04-26T14:11:19.926Z,17.60
2023-04-26T14:15:24.805Z,18.70
2023-04-26T14:19:33.215Z,18.70
2023-04-26T14:23:43.796Z,17.90
2023-04-26T14:27:47.065Z,17.30
2023-04-26T14:31:51.698Z,17.00
2023-04-26T14:35:55.127Z,16.60
2023-04-26T14:40:00.821Z,17.00
2023-04-26T14:44:06.026Z,17.70
2023-04-26T14:48:10.996Z,17.60
2023-04-26T14:52:20.038Z,17.60
2023-04-26T14:56:23.845Z,17.80
2023-04-26T15:00:26.947Z,17.60
2023-04-26T15:04:31.554Z,17.10
2023-04-26T15:08:34.845Z,16.60
2023-04-26T15:12:38.058Z,16.80
2023-04-26T15:16:41.107Z,17.80
2023-04-26T15:20:49.631Z,18.50
2023-04-26T15:24:52.816Z,18.40
2023-04-26T15:28:56.351Z,18.30
2023-04-26T15:33:03.515Z,18.50
2023-04-26T15:37:09.932Z,18.40
2023-04-26T15:41:13.286Z,18.30
2023-04-26T15:45:16.747Z,18.10
2023-04-26T15:49:20.024Z,17.60
2023-04-26T15:53:24.553Z,17.30
2023-04-26T15:57:27.603Z,17.70
2023-04-26T16:01:30.714Z,18.20
2023-04-26T16:05:33.865Z,18.70
2023-04-26T16:09:41.100Z,18.80
2023-04-26T16:13:44.644Z,18.70
2023-04-26T16:17:47.798Z,18.80
2023-04-26T16:21:55.396Z,18.60
2023-04-26T16:26:00.237Z,18.70
2023-04-26T16:30:04.621Z,18.40
2023-04-26T16:34:10.091Z,17.60
2023-04-26T16:38:18.477Z,17.00
2023-04-26T16:42:23.074Z,16.90
2023-04-26T16:46:27.135Z,17.10
2023-04-26T16:50:31.452Z,16.50
2023-04-26T16:54:34.534Z,15.80
2023-04-26T16:58:39.436Z,15.30
2023-04-26T17:02:45.501Z,15.20
2023-04-26T17:06:48.655Z,15.60
2023-04-26T17:10:51.937Z,16.10
2023-04-26T17:14:57.369Z,15.90
2023-04-26T17:19:04.145Z,15.20
2023-04-26T17:23:08.635Z,14.80
2023-04-26T17:27:11.734Z,14.70
2023-04-26T17:31:17.212Z,14.20
2023-04-26T17:35:20.345Z,13.70
2023-04-26T17:39:23.895Z,13.40
2023-04-26T17:43:28.868Z,13.20
2023-04-26T17:47:37.329Z,13.00
2023-04-26T17:51:40.582Z,13.00
2023-04-26T17:55:43.702Z,12.80
2023-04-26T17:59:51.315Z,12.60
2023-04-26T18:03:58.881Z,12.40
2023-04-26T18:08:04.900Z,12.20
2023-04-26T18:12:08.237Z,12.00
2023-04-26T18:16:12.601Z,11.90
2023-04-26T18:20:17.298Z,11.80
2023-04-26T18:24:21.181Z,11.70
2023-04-26T18:28:26.781Z,11.50
2023-04-26T18:32:31.439Z,11.30
2023-04-26T18:36:36.093Z,11.10
2023-04-26T18:40:44.512Z,10.90
2023-04-26T18:44:47.716Z,10.70
2023-04-26T18:48:51.279Z,10.60
2023-04-26T18:52:55.993Z,10.40
2023-04-26T18:57:03.316Z,10.20
2023-04-26T19:01:06.704Z,10.00
2023-04-26T19:05:12.042Z,9.90
2023-04-26T19:09:17.974Z,9.80
2023-04-26T19:13:21.549Z,9.70
2023-04-26T19:17:25.605Z,9.60
2023-04-26T19:21:31.561Z,9.50
2023-04-26T19:25:38.761Z,9.30
2023-04-26T19:29:46.312Z,9.00
2023-04-26T19:33:54.844Z,8.80
2023-04-26T19:38:01.951Z,8.60
2023-04-26T19:42:06.629Z,8.40
2023-04-26T19:46:15.044Z,8.30
2023-04-26T19:50:18.318Z,8.20
2023-04-26T19:54:21.335Z,8.10
2023-04-26T19:58:28.616Z,7.90
2023-04-26T20:02:34.027Z,7.80
2023-04-26T20:06:37.145Z,7.80
2023-04-26T20:10:41.752Z,7.50
2023-04-26T20:14:46.651Z,7.30
2023-04-26T20:18:53.239Z,7.10
2023-04-26T20:22:56.332Z,6.80
2023-04-26T20:26:59.334Z,6.60
2023-04-26T20:31:04.060Z,6.50
2023-04-26T20:35:08.428Z,6.30
2023-04-26T20:39:14.395Z,6.20
2023-04-26T20:43:17.659Z,6.10
2023-04-26T20:47:24.868Z,5.90
2023-04-26T20:51:31.438Z,5.80
2023-04-26T20:55:42.855Z,5.70
2023-04-26T20:59:46.346Z,5.70
2023-04-26T21:03:51.191Z,5.70
2023-04-26T21:07:54.390Z,5.70
2023-04-26T21:11:57.497Z,5.70
2023-04-26T21:16:02.347Z,5.60
2023-04-26T21:20:08.328Z,5.60
2023-04-26T21:24:13.113Z,5.60
2023-04-26T21:28:19.371Z,5.60
2023-04-26T21:32:22.385Z,5.60
2023-04-26T21:36:37.312Z,5.60
2023-04-26T21:40:42.516Z,5.60
2023-04-26T21:44:46.793Z,5.60
2023-04-26T21:48:49.804Z,5.60
2023-04-26T21:52:55.657Z,5.50
2023-04-26T21:56:58.913Z,5.30
2023-04-26T22:01:08.577Z,5.20
2023-04-26T22:05:11.755Z,5.10
2023-04-26T22:09:15.890Z,5.00
2023-04-26T22:13:20.954Z,5.00
2023-04-26T22:17:23.859Z,5.00
2023-04-26T22:21:28.437Z,5.00
2023-04-26T22:25:33.816Z,5.00
2023-04-26T22:29:36.606Z,5.10
2023-04-26T22:33:43.574Z,5.10
2023-04-26T22:37:49.622Z,5.10
2023-04-26T22:41:53.979Z,5.10
2023-04-26T22:45:56.781Z,5.10
2023-04-26T22:50:05.036Z,5.20
2023-04-26T22:54:09.647Z,5.20
2023-04-26T22:58:18.362Z,5.30
2023-04-26T23:02:23.765Z,5.40
2023-04-26T23:06:27.024Z,5.40
2023-04-26T23:10:29.818Z,5.50
2023-04-26T23:14:35.109Z,5.50
2023-04-26T23:18:38.442Z,5.50
2023-04-26T23:22:44.476Z,5.50
2023-04-26T23:26:52.301Z,5.50
2023-04-26T23:30:56.510Z,5.50
2023-04-26T23:34:59.798Z,5.50
2023-04-26T23:39:02.618Z,5.60
2023-04-26T23:43:06.330Z,5.60
2023-04-26T23:47:13.459Z,5.70
2023-04-26T23:51:16.285Z,5.80
2023-04-26T23:55:21.051Z,5.90
2023-04-26T23:59:24.216Z,5.90
